Portland, IN

2:59 PM EDT on August 30, 2014 (GMT -0400)
K9UO | Change Station
CLOSE
Current Station
Personal Weather Station
Location: Portland, IN
Elevation: 940 ft
Nearby Weather Stations

Elev 940 ft 40.40 °N, 84.98 °W | Updated 1 second ago

Partly Cloudy
Partly Cloudy
79.4 °F
Feels Like 83 °F
N
5.0
Wind Variable Wind from SSW
Gusts 11.0 mph

Today
High -- | Low -- °F
--% Chance of Precip.
Yesterday
High -- | Low -- °F
Precip. -- in
7:05 AM 8:15 PM
Waxing Crescent, 24% visible
Pressure 29.96 in
Visibility 10.0 miles
Clouds Few 2200 ft
Heat Index 83 °F
Dew Point 72 °F
Humidity 78%
Rainfall 0.00 in
Snow Depth Not available.
UV 8 out of 12
Pollen 9.50 out of 12
Air Quality Not available.
Flu Activity Not available.
METAR KMIE 301853Z 23012G21KT 10SM FEW022 27/21 A3000 RMK AO2 RAE05 SLP145 P0000 T02670206

More Conditions Fewer Conditions

Pressure 29.96 in
Visibility 10.0 miles
Clouds Few 2200 ft
Heat Index 83 °F
Dew Point 72 °F
Humidity 78%
Rainfall 0.00 in
Snow Depth Not available.
UV 8 out of 12
Pollen 9.50 out of 12
Air Quality Not available.
Flu Activity Not available.
METAR KMIE 301853Z 23012G21KT 10SM FEW022 27/21 A3000 RMK AO2 RAE05 SLP145 P0000 T02670206

More Conditions Fewer Conditions

10-Day Weather Forecast

Almanac

Astronomy

Aug. 30, 2014 Rise Set
Actual Time 7:05 AM EDT 8:15 PM EDT
Civil Twilight 6:37 AM EDT 8:43 PM EDT
Nautical Twilight 6:03 AM EDT 9:16 PM EDT
Astronomical Twilight 5:28 AM EDT 9:51 PM EDT
Moon 11:53 AM EDT 10:47 PM EDT
Length of Visible Light 14h 05m
Length of Day
13h 09m
Tomorrow will be 2m 33s shorter.
Waxing Crescent, 24% of the Moon is Illuminated
Today
Waxing Crescent
Sep 2
First Quarter
Sep 8
Full
Sep 15
Last Quarter
Sep 24
New

Today's Extremes

State Highs State Lows

Community

WunderPhotos

Upload Photos

1,748,593 photos uploaded!

WunderBlogs® & News

Nearby

Snow Depth

Station Depth Elevation
No new snow has been reported.

Earthquake Activity

City Distance Mag. Time & Date
No recent earthquake activity has been reported nearby.
Minimum magnitude displayed is 2.5.

Coastal Water Temperatures

Place Temperature
No Stations Reporting

Nearby Weather Stations